Vernal, UT

2:32 PM MDT on September 02, 2014 (GMT -0600)
Vernal | Change Station
CLOSE
Current Station
Airport
Location: Vernal,
Elevation: 5276 ft
Nearby Weather Stations

Elev 5276 ft 40.44 °N, 109.51 °W | Updated 39 minutes ago

Clear
Clear
76 °F
Feels Like 76 °F
N
7
Wind Variable Wind from SSE

Today
High -- | Low -- °F
--% Chance of Precip.
Yesterday
High -- | Low -- °F
Precip. -- in
6:46 AM 7:48 PM
First Quarter, 54% visible
Pressure 29.91 in
Visibility 10.0 miles
Clouds Clear
Dew Point 41 °F
Humidity 29%
Rainfall 0.00 in
Snow Depth Not available.
UV 10 out of 12
Pollen 8.40 out of 12
Air Quality Not available.
Flu Activity Not available.
METAR KVEL 021953Z AUTO 15006KT 10SM CLR 24/05 A3006 RMK AO2 SLP127 T02440050

More Conditions Fewer Conditions

Pressure 29.91 in
Visibility 10.0 miles
Clouds Clear
Dew Point 41 °F
Humidity 29%
Rainfall 0.00 in
Snow Depth Not available.
UV 10 out of 12
Pollen 8.40 out of 12
Air Quality Not available.
Flu Activity Not available.
METAR KVEL 021953Z AUTO 15006KT 10SM CLR 24/05 A3006 RMK AO2 SLP127 T02440050

More Conditions Fewer Conditions

10-Day Weather Forecast

Almanac

Astronomy

Sep. 02, 2014 Rise Set
Actual Time 6:46 AM MDT 7:48 PM MDT
Civil Twilight 6:18 AM MDT 8:16 PM MDT
Nautical Twilight 5:45 AM MDT 8:49 PM MDT
Astronomical Twilight 5:10 AM MDT 9:23 PM MDT
Moon 2:35 PM MDT No Moon Set
Length of Visible Light 13h 57m
Length of Day
13h 01m
Tomorrow will be 2m 34s shorter.
First Quarter, 54% of the Moon is Illuminated
Today
First Quarter
Sep 8
Full
Sep 15
Last Quarter
Sep 24
New
Oct 1
First Quarter

Today's Extremes

State Highs State Lows

Community

WunderPhotos

Upload Photos

1,749,754 photos uploaded!

WunderBlogs® & News

By Dr. Jeff Masters
Director of Meteorology, Weather Underground
By Kari Strenfel
Meteorologist, Weather Underground
By Christopher C. Burt
Weather Historian, Weather Underground
September 2, 2014
September 2, 2014
September 2, 2014

Nearby

Snow Depth

Station Depth Elevation
Trout Creek 0 in 9400 ft
Trial Lake 1 in 9960 ft
Cascade Mountain 0 in 7768 ft
Hardscrabble 0 in 7250 ft
Little Bear 0 in 6550 ft

Earthquake Activity

City Distance Mag. Time & Date
No recent earthquake activity has been reported nearby.
Minimum magnitude displayed is 2.5.

Coastal Water Temperatures

Place Temperature
No Stations Reporting

Nearby Weather Stations